createdAt,value
2023-03-31T00:01:41.940Z,99791.34
2023-03-31T00:04:13.606Z,99793.63
2023-03-31T00:06:42.029Z,99767.44
2023-03-31T00:09:13.253Z,99781.50
2023-03-31T00:11:40.472Z,99762.06
2023-03-31T00:14:07.571Z,99751.59
2023-03-31T00:16:35.679Z,99760.59
2023-03-31T00:19:02.254Z,99768.41
2023-03-31T00:21:29.740Z,99745.66
2023-03-31T00:23:58.113Z,99728.13
2023-03-31T00:26:24.811Z,99753.91
2023-03-31T00:28:51.388Z,99747.19
2023-03-31T00:31:19.030Z,99751.41
2023-03-31T00:33:46.961Z,99753.22
2023-03-31T00:36:17.817Z,99759.41
2023-03-31T00:38:46.313Z,99758.72
2023-03-31T00:41:12.879Z,99756.66
2023-03-31T00:43:39.477Z,99693.41
2023-03-31T00:46:07.333Z,99730.44
2023-03-31T00:48:34.975Z,99700.88
2023-03-31T00:51:04.922Z,99711.75
2023-03-31T00:53:32.107Z,99684.13
2023-03-31T00:56:01.703Z,99702.56
2023-03-31T00:58:29.024Z,99708.56
2023-03-31T01:00:57.330Z,99702.69
2023-03-31T01:03:24.066Z,99699.94
2023-03-31T01:05:54.361Z,99682.03
2023-03-31T01:08:24.398Z,99693.66
2023-03-31T01:10:52.990Z,99681.19
2023-03-31T01:13:19.636Z,99668.56
2023-03-31T01:15:46.203Z,99700.75
2023-03-31T01:18:13.273Z,99715.38
2023-03-31T01:20:59.065Z,99717.78
2023-03-31T01:24:03.684Z,99720.22
2023-03-31T01:27:04.565Z,99700.50
2023-03-31T01:29:59.045Z,99685.00
2023-03-31T01:32:28.531Z,99681.44
2023-03-31T01:35:36.795Z,99672.97
2023-03-31T01:38:13.489Z,99679.16
2023-03-31T01:40:52.111Z,99668.16
2023-03-31T01:43:52.267Z,99662.53
2023-03-31T01:46:19.301Z,99656.34
2023-03-31T01:48:54.430Z,99653.81
2023-03-31T01:51:31.487Z,99643.63
2023-03-31T01:54:16.781Z,99642.16
2023-03-31T01:56:53.954Z,99633.75
2023-03-31T01:59:30.219Z,99634.88
2023-03-31T02:02:08.259Z,99624.44
2023-03-31T02:04:38.461Z,99636.50
2023-03-31T02:07:09.873Z,99629.53
2023-03-31T02:09:38.792Z,99610.09
2023-03-31T02:12:07.765Z,99626.19
2023-03-31T02:14:34.364Z,99627.13
2023-03-31T02:17:02.296Z,99609.22
2023-03-31T02:19:31.835Z,99586.19
2023-03-31T02:21:58.366Z,99552.69
2023-03-31T02:24:25.874Z,99590.75
2023-03-31T02:27:07.448Z,99556.44
2023-03-31T02:29:34.287Z,99569.44
2023-03-31T02:32:40.192Z,99553.06
2023-03-31T02:35:08.240Z,99552.75
2023-03-31T02:37:34.802Z,99546.63
2023-03-31T02:40:04.976Z,99539.53
2023-03-31T02:42:31.624Z,99537.13
2023-03-31T02:45:06.011Z,99496.13
2023-03-31T02:47:32.714Z,99508.28
2023-03-31T02:50:00.428Z,99512.31
2023-03-31T02:52:51.747Z,99494.31
2023-03-31T02:55:47.277Z,99497.69
2023-03-31T02:58:42.163Z,99489.28
2023-03-31T03:01:41.327Z,99478.81
2023-03-31T03:04:45.643Z,99465.75
2023-03-31T03:07:26.635Z,99441.41
2023-03-31T03:10:19.172Z,99448.34
2023-03-31T03:12:51.015Z,99440.97
2023-03-31T03:15:21.633Z,99431.81
2023-03-31T03:17:48.585Z,99436.41
2023-03-31T03:20:16.070Z,99426.06
2023-03-31T03:22:42.664Z,99389.50
2023-03-31T03:25:11.564Z,99414.28
2023-03-31T03:27:38.461Z,99396.06
2023-03-31T03:30:06.541Z,99399.94
2023-03-31T03:32:33.679Z,99415.59
2023-03-31T03:35:01.168Z,99404.13
2023-03-31T03:37:28.302Z,99394.16
2023-03-31T03:39:54.920Z,99363.06
2023-03-31T03:42:21.465Z,99373.66
2023-03-31T03:44:48.011Z,99327.59
2023-03-31T03:47:14.612Z,99324.84
2023-03-31T03:49:41.128Z,99295.25
2023-03-31T03:52:07.709Z,99281.88
2023-03-31T03:54:34.266Z,99304.69
2023-03-31T03:57:00.912Z,99293.66
2023-03-31T03:59:27.617Z,99334.81
2023-03-31T04:01:54.214Z,99330.78
2023-03-31T04:04:20.888Z,99315.88
2023-03-31T04:06:47.460Z,99347.06
2023-03-31T04:09:14.017Z,99336.63
2023-03-31T04:11:40.660Z,99349.47
2023-03-31T04:14:07.213Z,99328.50
2023-03-31T04:16:34.539Z,99324.63
2023-03-31T04:19:03.769Z,99328.75
2023-03-31T04:21:34.544Z,99322.09
2023-03-31T04:24:07.136Z,99293.69
2023-03-31T04:26:42.963Z,99309.97
2023-03-31T04:29:13.856Z,99274.66
2023-03-31T04:31:43.877Z,99286.59
2023-03-31T04:34:14.736Z,99284.97
2023-03-31T04:36:48.555Z,99275.69
2023-03-31T04:39:16.540Z,99272.94
2023-03-31T04:41:43.147Z,99271.22
2023-03-31T04:44:09.686Z,99289.44
2023-03-31T04:46:36.221Z,99287.03
2023-03-31T04:49:02.917Z,99289.09
2023-03-31T04:51:29.496Z,99270.78
2023-03-31T04:53:56.037Z,99257.00
2023-03-31T04:56:22.857Z,99292.63
2023-03-31T04:58:49.427Z,99293.09
2023-03-31T05:01:18.511Z,99282.47
2023-03-31T05:03:47.825Z,99285.44
2023-03-31T05:06:15.631Z,99291.50
2023-03-31T05:08:42.240Z,99295.75
2023-03-31T05:11:08.814Z,99303.06
2023-03-31T05:13:35.671Z,99303.28
2023-03-31T05:16:14.451Z,99297.19
2023-03-31T05:18:41.627Z,99295.25
2023-03-31T05:21:15.476Z,99290.91
2023-03-31T05:23:42.137Z,99291.59
2023-03-31T05:26:09.102Z,99263.28
2023-03-31T05:28:35.964Z,99233.84
2023-03-31T05:31:03.032Z,99243.66
2023-03-31T05:33:29.970Z,99236.69
2023-03-31T05:35:56.612Z,99218.22
2023-03-31T05:38:23.227Z,99202.66
2023-03-31T05:40:49.809Z,99214.66
2023-03-31T05:43:16.416Z,99202.88
2023-03-31T05:45:43.038Z,99172.44
2023-03-31T05:48:09.716Z,99192.66
2023-03-31T05:50:36.302Z,99131.09
2023-03-31T05:53:02.935Z,99180.41
2023-03-31T05:55:30.756Z,99174.47
2023-03-31T05:57:59.087Z,99168.50
2023-03-31T06:00:25.976Z,99175.84
2023-03-31T06:02:52.612Z,99165.19
2023-03-31T06:05:19.242Z,99170.00
2023-03-31T06:07:45.795Z,99136.88
2023-03-31T06:10:12.369Z,99143.41
2023-03-31T06:12:38.948Z,99139.13
2023-03-31T06:15:06.062Z,99151.75
2023-03-31T06:17:32.853Z,99145.91
2023-03-31T06:19:59.423Z,99136.84
2023-03-31T06:22:25.967Z,99119.25
2023-03-31T06:24:52.550Z,99114.66
2023-03-31T06:27:19.165Z,99108.88
2023-03-31T06:29:45.787Z,99121.84
2023-03-31T06:32:12.383Z,99089.63
2023-03-31T06:34:38.943Z,99043.13
2023-03-31T06:37:05.843Z,99017.81
2023-03-31T06:39:32.449Z,99084.28
2023-03-31T06:41:59.021Z,99094.50
2023-03-31T06:44:27.939Z,99091.84
2023-03-31T06:46:54.996Z,99094.69
2023-03-31T06:49:21.594Z,99088.72
2023-03-31T06:51:48.160Z,99073.38
2023-03-31T06:54:14.807Z,99062.63
2023-03-31T06:56:41.357Z,99088.50
2023-03-31T06:59:07.905Z,99085.66
2023-03-31T07:01:37.341Z,99075.16
2023-03-31T07:04:04.642Z,99096.75
2023-03-31T07:06:31.361Z,99076.22
2023-03-31T07:08:58.021Z,99082.53
2023-03-31T07:11:24.936Z,99090.31
2023-03-31T07:13:51.582Z,99079.59
2023-03-31T07:16:18.240Z,99087.13
2023-03-31T07:18:45.250Z,99084.81
2023-03-31T07:21:11.995Z,99080.28
2023-03-31T07:23:38.757Z,99083.22
2023-03-31T07:26:06.397Z,99075.25
2023-03-31T07:28:33.171Z,99093.53
2023-03-31T07:30:59.831Z,99094.22
2023-03-31T07:33:26.422Z,99090.50
2023-03-31T07:36:03.901Z,99099.31
2023-03-31T07:38:37.987Z,99096.31
2023-03-31T07:41:09.268Z,99100.94
2023-03-31T07:43:36.846Z,99093.75
2023-03-31T07:46:05.317Z,99113.47
2023-03-31T07:48:32.498Z,99074.63
2023-03-31T07:50:59.040Z,99094.72
2023-03-31T07:53:31.565Z,99100.09
2023-03-31T07:55:58.285Z,99097.44
2023-03-31T07:58:24.911Z,99095.91
2023-03-31T08:00:51.638Z,99072.28
2023-03-31T08:03:18.289Z,99091.84
2023-03-31T08:05:44.960Z,99104.72
2023-03-31T08:08:11.625Z,99097.97
2023-03-31T08:10:38.225Z,99087.88
2023-03-31T08:13:05.169Z,99092.44
2023-03-31T08:15:31.748Z,99078.41
2023-03-31T08:17:58.402Z,99066.75
2023-03-31T08:20:25.069Z,99080.31
2023-03-31T08:22:52.121Z,99083.34
2023-03-31T08:25:18.725Z,99071.25
2023-03-31T08:27:46.683Z,99062.75
2023-03-31T08:30:13.733Z,99079.94
2023-03-31T08:32:40.437Z,99077.41
2023-03-31T08:35:07.762Z,99078.41
2023-03-31T08:37:34.783Z,99064.66
2023-03-31T08:40:01.522Z,99040.63
2023-03-31T08:42:31.047Z,99045.50
2023-03-31T08:45:15.243Z,99031.50
2023-03-31T08:47:41.943Z,99037.09
2023-03-31T08:50:13.270Z,99049.94
2023-03-31T08:52:53.061Z,99065.75
2023-03-31T08:55:25.916Z,99050.63
2023-03-31T08:58:06.708Z,99057.84
2023-03-31T09:00:40.472Z,99046.03
2023-03-31T09:03:29.315Z,99050.63
2023-03-31T09:06:00.506Z,99049.47
2023-03-31T09:08:37.444Z,99051.75
2023-03-31T09:11:13.999Z,99057.03
2023-03-31T09:13:49.703Z,99045.81
2023-03-31T09:16:43.063Z,99033.22
2023-03-31T09:19:41.399Z,99004.13
2023-03-31T09:22:16.270Z,99022.47
2023-03-31T09:24:51.966Z,99019.72
2023-03-31T09:27:18.628Z,99005.75
2023-03-31T09:29:51.392Z,99015.53
2023-03-31T09:32:20.253Z,99023.34
2023-03-31T09:34:47.853Z,98990.03
2023-03-31T09:37:14.472Z,98983.28
2023-03-31T09:39:41.332Z,98977.41
2023-03-31T09:42:12.715Z,98989.13
2023-03-31T09:44:43.651Z,98998.34
2023-03-31T09:47:15.124Z,99000.31
2023-03-31T09:49:41.874Z,98982.13
2023-03-31T09:52:31.676Z,98985.75
2023-03-31T09:55:00.632Z,98973.88
2023-03-31T09:57:33.730Z,98974.09
2023-03-31T10:00:14.364Z,98993.78
2023-03-31T10:02:50.889Z,98974.06
2023-03-31T10:05:34.136Z,98966.69
2023-03-31T10:08:09.688Z,98968.03
2023-03-31T10:10:36.381Z,98950.91
2023-03-31T10:13:02.942Z,98969.22
2023-03-31T10:15:29.593Z,98959.78
2023-03-31T10:17:58.275Z,98976.03
2023-03-31T10:20:32.397Z,98963.44
2023-03-31T10:23:03.550Z,98972.31
2023-03-31T10:25:30.168Z,98963.69
2023-03-31T10:27:56.832Z,98949.34
2023-03-31T10:30:24.909Z,98924.22
2023-03-31T10:32:54.074Z,98959.56
2023-03-31T10:35:32.544Z,98956.81
2023-03-31T10:38:03.874Z,98976.16
2023-03-31T10:40:32.627Z,98995.75
2023-03-31T10:43:19.446Z,98988.47
2023-03-31T10:45:50.676Z,99006.88
2023-03-31T10:48:33.836Z,99017.97
2023-03-31T10:51:13.505Z,99026.69
2023-03-31T10:53:51.591Z,99019.63
2023-03-31T10:56:27.368Z,99015.19
2023-03-31T10:59:12.563Z,98972.50
2023-03-31T11:01:54.157Z,98976.75
2023-03-31T11:04:43.328Z,98974.38
2023-03-31T11:07:49.547Z,98971.97
2023-03-31T11:10:34.999Z,98985.03
2023-03-31T11:13:07.445Z,98982.53
2023-03-31T11:15:37.054Z,98989.28
2023-03-31T11:18:11.280Z,98981.38
2023-03-31T11:20:42.202Z,98981.56
2023-03-31T11:23:30.248Z,98967.53
2023-03-31T11:26:02.167Z,98974.38
2023-03-31T11:28:28.728Z,98975.72
2023-03-31T11:31:23.263Z,98952.72
2023-03-31T11:34:17.822Z,98955.59
2023-03-31T11:36:50.339Z,98985.31
2023-03-31T11:39:54.832Z,98993.13
2023-03-31T11:42:22.593Z,98992.25
2023-03-31T11:44:53.073Z,98986.19
2023-03-31T11:47:20.948Z,98981.06
2023-03-31T11:50:02.976Z,98991.44
2023-03-31T11:52:39.401Z,98988.41
2023-03-31T11:55:16.820Z,98957.44
2023-03-31T11:58:04.455Z,98975.47
2023-03-31T12:00:46.804Z,98978.38
2023-03-31T12:03:14.195Z,99005.91
2023-03-31T12:06:02.846Z,98977.69
2023-03-31T12:08:41.827Z,98961.16
2023-03-31T12:11:11.339Z,98971.38
2023-03-31T12:14:08.896Z,98967.91
2023-03-31T12:16:55.968Z,98973.44
2023-03-31T12:19:34.066Z,98970.69
2023-03-31T12:22:39.204Z,98977.94
2023-03-31T12:25:06.484Z,98956.19
2023-03-31T12:27:36.039Z,98953.16
2023-03-31T12:30:14.679Z,98948.38
2023-03-31T12:33:02.351Z,98951.13
2023-03-31T12:35:33.403Z,98921.13
2023-03-31T12:38:31.037Z,98945.91
2023-03-31T12:41:15.413Z,98943.88
2023-03-31T12:43:51.194Z,98941.81
2023-03-31T12:46:39.560Z,98936.31
2023-03-31T12:49:37.135Z,98948.91
2023-03-31T12:52:45.445Z,98944.47
2023-03-31T12:55:28.846Z,98935.41
2023-03-31T12:58:34.808Z,98947.13
2023-03-31T13:01:16.682Z,98941.25
2023-03-31T13:04:17.562Z,98949.16
2023-03-31T13:06:46.688Z,98945.09
2023-03-31T13:09:13.226Z,98937.16
2023-03-31T13:11:47.687Z,98927.16
2023-03-31T13:14:17.890Z,98931.41
2023-03-31T13:16:44.730Z,98906.66
2023-03-31T13:19:43.861Z,98929.22
2023-03-31T13:22:27.980Z,98918.44
2023-03-31T13:24:54.698Z,98919.53
2023-03-31T13:27:30.492Z,98910.03
2023-03-31T13:29:57.112Z,98918.22
2023-03-31T13:32:25.538Z,98928.16
2023-03-31T13:35:06.896Z,98896.34
2023-03-31T13:37:50.349Z,98904.88
2023-03-31T13:40:35.579Z,98905.47
2023-03-31T13:43:22.822Z,98900.34
2023-03-31T13:46:10.303Z,98902.38
2023-03-31T13:48:59.128Z,98891.50
2023-03-31T13:51:25.671Z,98902.13
2023-03-31T13:54:10.537Z,98899.38
2023-03-31T13:56:43.855Z,98893.00
2023-03-31T13:59:31.130Z,98903.47
2023-03-31T14:02:28.077Z,98869.63
2023-03-31T14:05:03.747Z,98869.56
2023-03-31T14:07:44.297Z,98852.66
2023-03-31T14:10:33.418Z,98876.56
2023-03-31T14:13:12.373Z,98872.72
2023-03-31T14:15:51.612Z,98867.16
2023-03-31T14:18:33.560Z,98871.94
2023-03-31T14:21:17.817Z,98842.31
2023-03-31T14:23:49.941Z,98892.78
2023-03-31T14:26:35.165Z,98844.88
2023-03-31T14:29:13.662Z,98877.53
2023-03-31T14:31:53.036Z,98884.78
2023-03-31T14:34:34.552Z,98856.75
2023-03-31T14:37:03.199Z,98896.28
2023-03-31T14:39:32.316Z,98873.56
2023-03-31T14:42:16.044Z,98867.22
2023-03-31T14:44:46.901Z,98836.00
2023-03-31T14:47:29.190Z,98847.53
2023-03-31T14:50:01.173Z,98851.88
2023-03-31T14:52:30.481Z,98839.56
2023-03-31T14:54:57.035Z,98835.91
2023-03-31T14:57:34.383Z,98846.66
2023-03-31T15:00:01.359Z,98831.41
2023-03-31T15:02:33.218Z,98813.84
2023-03-31T15:05:03.003Z,98848.59
2023-03-31T15:07:29.741Z,98852.59
2023-03-31T15:09:56.387Z,98860.44
2023-03-31T15:12:23.568Z,98865.00
2023-03-31T15:14:51.871Z,98857.47
2023-03-31T15:17:42.019Z,98855.88
2023-03-31T15:20:38.062Z,98870.09
2023-03-31T15:23:18.525Z,98867.75
2023-03-31T15:25:45.287Z,98871.88
2023-03-31T15:28:12.742Z,98877.94
2023-03-31T15:30:39.378Z,98879.19
2023-03-31T15:33:18.874Z,98872.19
2023-03-31T15:35:46.251Z,98883.19
2023-03-31T15:38:16.300Z,98860.13
2023-03-31T15:40:44.062Z,98876.09
2023-03-31T15:45:52.353Z,98887.66
2023-03-31T15:48:24.221Z,98860.28
2023-03-31T15:50:51.838Z,98879.19
2023-03-31T15:53:30.698Z,98884.84
2023-03-31T15:55:59.949Z,98843.50
2023-03-31T15:58:55.844Z,98889.91
2023-03-31T16:01:23.235Z,98880.41
2023-03-31T16:03:52.876Z,98884.31
2023-03-31T16:06:27.559Z,98875.44
2023-03-31T16:09:21.107Z,98892.47
2023-03-31T16:11:57.506Z,98888.66
2023-03-31T16:14:38.233Z,98886.06
2023-03-31T16:17:11.943Z,98880.75
2023-03-31T16:19:48.171Z,98873.31
2023-03-31T16:22:18.166Z,98880.66
2023-03-31T16:24:45.026Z,98877.38
2023-03-31T16:27:11.772Z,98863.97
2023-03-31T16:29:39.041Z,98879.31
2023-03-31T16:32:17.019Z,98883.84
2023-03-31T16:34:56.307Z,98884.25
2023-03-31T16:37:23.389Z,98886.13
2023-03-31T16:39:50.483Z,98891.56
2023-03-31T16:42:17.425Z,98903.00
2023-03-31T16:44:49.948Z,98912.16
2023-03-31T16:47:34.507Z,98878.75
2023-03-31T16:50:07.347Z,98913.75
2023-03-31T16:52:34.782Z,98857.69
2023-03-31T16:55:01.968Z,98888.59
2023-03-31T16:57:28.742Z,98891.66
2023-03-31T17:02:42.936Z,98908.41
2023-03-31T17:05:13.230Z,98917.81
2023-03-31T17:07:40.877Z,98904.34
2023-03-31T17:10:08.449Z,98915.41
2023-03-31T17:12:36.398Z,98857.31
2023-03-31T17:15:03.470Z,98905.66
2023-03-31T17:17:34.526Z,98911.63
2023-03-31T17:20:01.991Z,98910.28
2023-03-31T17:22:29.767Z,98921.78
2023-03-31T17:24:59.334Z,98918.53
2023-03-31T17:27:27.408Z,98908.41
2023-03-31T17:29:54.467Z,98906.81
2023-03-31T17:32:22.009Z,98888.03
2023-03-31T17:34:49.165Z,98904.50
2023-03-31T17:37:20.224Z,98919.88
2023-03-31T17:39:52.193Z,98926.50
2023-03-31T17:42:20.333Z,98921.28
2023-03-31T17:44:50.016Z,98935.56
2023-03-31T17:47:18.072Z,98940.13
2023-03-31T17:49:44.783Z,98922.97
2023-03-31T17:52:11.727Z,98943.56
2023-03-31T17:54:38.405Z,98921.75
2023-03-31T17:57:05.098Z,98921.81
2023-03-31T17:59:31.874Z,98951.56
2023-03-31T18:01:59.071Z,98965.69
2023-03-31T18:04:26.145Z,98966.59
2023-03-31T18:06:52.846Z,98946.06
2023-03-31T18:09:20.503Z,98963.56
2023-03-31T18:11:47.272Z,98959.81
2023-03-31T18:14:14.522Z,98961.66
2023-03-31T18:16:41.700Z,98977.28
2023-03-31T18:19:09.037Z,98948.66
2023-03-31T18:21:36.934Z,98958.13
2023-03-31T18:24:03.721Z,98978.72
2023-03-31T18:26:30.656Z,98947.03
2023-03-31T18:28:57.288Z,98976.59
2023-03-31T18:31:26.829Z,98960.88
2023-03-31T18:33:54.724Z,98976.13
2023-03-31T18:36:22.119Z,98941.44
2023-03-31T18:38:49.368Z,98977.84
2023-03-31T18:41:16.154Z,98979.06
2023-03-31T18:43:43.449Z,98967.19
2023-03-31T18:46:10.796Z,98979.97
2023-03-31T18:48:38.497Z,98984.75
2023-03-31T18:51:05.172Z,98967.34
2023-03-31T18:53:31.987Z,98983.94
2023-03-31T18:55:58.972Z,98978.53
2023-03-31T18:58:26.491Z,98982.53
2023-03-31T19:00:53.193Z,98973.13
2023-03-31T19:03:20.017Z,98969.94
2023-03-31T19:05:46.811Z,99003.06
2023-03-31T19:08:13.518Z,98994.16
2023-03-31T19:10:40.188Z,98986.78
2023-03-31T19:13:07.661Z,98987.69
2023-03-31T19:15:37.045Z,98974.47
2023-03-31T19:18:04.186Z,99008.56
2023-03-31T19:20:31.050Z,98989.13
2023-03-31T19:22:57.769Z,98999.16
2023-03-31T19:25:24.459Z,98997.09
2023-03-31T19:27:51.655Z,98995.88
2023-03-31T19:30:20.314Z,98992.09
2023-03-31T19:32:48.786Z,98994.63
2023-03-31T19:35:18.768Z,98977.75
2023-03-31T19:37:46.050Z,98999.66
2023-03-31T19:40:13.033Z,99009.78
2023-03-31T19:42:42.064Z,99013.78
2023-03-31T19:45:09.166Z,98985.72
2023-03-31T19:47:35.950Z,98997.00
2023-03-31T19:50:02.670Z,99011.81
2023-03-31T19:52:29.669Z,99003.13
2023-03-31T19:54:56.367Z,98993.28
2023-03-31T19:57:23.188Z,99009.16
2023-03-31T19:59:49.956Z,98953.31
2023-03-31T20:02:16.690Z,98972.41
2023-03-31T20:04:43.825Z,98982.00
2023-03-31T20:07:10.509Z,98980.94
2023-03-31T20:09:37.758Z,98983.84
2023-03-31T20:12:04.466Z,98977.38
2023-03-31T20:14:31.096Z,98987.88
2023-03-31T20:17:00.883Z,98984.31
2023-03-31T20:19:27.762Z,98987.69
2023-03-31T20:21:55.917Z,98989.38
2023-03-31T20:24:23.272Z,98976.94
2023-03-31T20:26:49.962Z,98990.97
2023-03-31T20:29:16.593Z,98985.03
2023-03-31T20:31:43.290Z,98983.84
2023-03-31T20:34:14.984Z,98980.94
2023-03-31T20:36:42.490Z,98965.13
2023-03-31T20:39:09.238Z,98985.47
2023-03-31T20:41:37.241Z,98963.09
2023-03-31T20:44:05.035Z,98980.94
2023-03-31T20:46:31.752Z,98993.81
2023-03-31T20:48:58.621Z,98991.75
2023-03-31T20:51:27.774Z,98993.72
2023-03-31T20:53:54.735Z,98992.03
2023-03-31T20:56:25.949Z,98989.72
2023-03-31T20:58:57.457Z,98941.78
2023-03-31T21:01:24.828Z,98989.81
2023-03-31T21:03:51.974Z,98975.78
2023-03-31T21:06:18.803Z,99003.31
2023-03-31T21:08:46.312Z,98983.66
2023-03-31T21:11:13.528Z,98995.13
2023-03-31T21:13:40.158Z,98990.88
2023-03-31T21:16:06.958Z,98985.63
2023-03-31T21:18:34.008Z,98995.56
2023-03-31T21:21:05.836Z,98978.34
2023-03-31T21:23:32.568Z,98995.03
2023-03-31T21:26:00.796Z,98967.84
2023-03-31T21:28:29.096Z,98996.19
2023-03-31T21:31:01.907Z,99003.03
2023-03-31T21:33:29.642Z,99003.38
2023-03-31T21:35:59.186Z,99004.63
2023-03-31T21:38:26.235Z,98972.66
2023-03-31T21:40:54.339Z,99003.91
2023-03-31T21:43:21.474Z,98996.81
2023-03-31T21:45:48.473Z,99005.31
2023-03-31T21:48:15.072Z,99009.47
2023-03-31T21:50:41.792Z,99017.81
2023-03-31T21:53:08.490Z,98978.66
2023-03-31T21:55:35.856Z,99014.44
2023-03-31T21:58:02.495Z,99017.72
2023-03-31T22:00:29.118Z,98980.75
2023-03-31T22:03:06.363Z,99006.34
2023-03-31T22:05:42.198Z,99020.84
2023-03-31T22:08:08.794Z,99020.84
2023-03-31T22:10:35.466Z,99017.81
2023-03-31T22:13:02.047Z,99000.25
2023-03-31T22:15:28.623Z,99014.75
2023-03-31T22:17:55.949Z,99001.75
2023-03-31T22:20:22.550Z,99017.28
2023-03-31T22:22:50.001Z,99008.84
2023-03-31T22:25:16.600Z,99021.53
2023-03-31T22:27:43.203Z,99005.19
2023-03-31T22:30:10.163Z,99002.25
2023-03-31T22:32:39.553Z,99032.44
2023-03-31T22:35:06.698Z,99036.31
2023-03-31T22:37:33.310Z,99035.19
2023-03-31T22:39:59.907Z,99040.25
2023-03-31T22:42:26.845Z,99042.03
2023-03-31T22:44:53.417Z,99041.13
2023-03-31T22:47:20.301Z,99016.69
2023-03-31T22:49:46.957Z,98984.44
2023-03-31T22:52:13.689Z,99049.84
2023-03-31T22:54:40.947Z,99048.16
2023-03-31T22:57:08.019Z,99059.69
2023-03-31T22:59:35.121Z,99044.16
2023-03-31T23:02:01.748Z,99033.75
2023-03-31T23:04:28.445Z,99030.91
2023-03-31T23:06:55.196Z,99046.19
2023-03-31T23:09:23.626Z,99019.91
2023-03-31T23:11:50.565Z,99041.63
2023-03-31T23:14:17.143Z,99047.34
2023-03-31T23:16:43.769Z,99005.28
2023-03-31T23:19:12.154Z,99054.53
2023-03-31T23:21:38.783Z,99054.00
2023-03-31T23:24:05.637Z,99047.44
2023-03-31T23:26:33.036Z,99052.84
2023-03-31T23:28:59.689Z,99042.28
2023-03-31T23:31:28.121Z,99047.09
2023-03-31T23:33:54.733Z,99029.59
2023-03-31T23:36:21.679Z,99041.81
2023-03-31T23:38:48.860Z,99048.59
2023-03-31T23:41:16.006Z,99029.03
2023-03-31T23:43:42.617Z,99045.84
2023-03-31T23:46:09.349Z,99043.25
2023-03-31T23:48:36.641Z,99007.06
2023-03-31T23:51:04.343Z,99026.94
2023-03-31T23:53:30.927Z,99033.84
2023-03-31T23:55:59.058Z,99033.47
2023-03-31T23:58:26.223Z,99032.25
